Time;durP1;ratioP1;P1;durP2;ratioP2;P2;SDS_P1;SDS_P2;PMS_P1;PMS_P2;Temp;Humidity;BMP_temperature;BMP_pressure;BME280_temperature;BME280_humidity;BME280_pressure;Samples;Min_cycle;Max_cycle;Signal;HPM_P1;HPM_P2
2023/05/01 00:01:15;;;;;;;6.78;4.75;;;;;;;;;;5022429;28;20100;-82
2023/05/01 00:03:40;;;;;;;9.68;4.80;;;;;;;;;;5012997;28;20528;-81
2023/05/01 00:06:06;;;;;;;6.05;4.85;;;;;;;;;;5011256;28;20029;-81
2023/05/01 00:08:32;;;;;;;7.22;4.60;;;;;;;;;;4999132;28;20041;-81
2023/05/01 00:11:02;;;;;;;8.05;4.97;;;;;;;;;;5011642;28;20037;-81
2023/05/01 00:13:28;;;;;;;6.30;4.18;;;;;;;;;;5014924;28;20549;-81
2023/05/01 00:15:54;;;;;;;8.32;4.43;;;;;;;;;;5012360;28;20026;-81
2023/05/01 00:18:19;;;;;;;6.30;4.40;;;;;;;;;;5013160;28;20041;-81
2023/05/01 00:20:45;;;;;;;6.40;4.65;;;;;;;;;;5013234;28;20050;-82
2023/05/01 00:23:11;;;;;;;7.10;4.70;;;;;;;;;;4995546;28;20025;-81
2023/05/01 00:25:37;;;;;;;6.57;4.53;;;;;;;;;;4992093;28;20046;-81
2023/05/01 00:28:03;;;;;;;9.77;4.88;;;;;;;;;;5015502;28;20030;-81
2023/05/01 00:30:28;;;;;;;7.82;5.05;;;;;;;;;;5015501;28;20037;-82
2023/05/01 00:32:53;;;;;;;6.28;4.63;;;;;;;;;;5016366;28;20032;-81
2023/05/01 00:35:19;;;;;;;13.07;5.28;;;;;;;;;;5014294;28;20049;-81
2023/05/01 00:37:44;;;;;;;7.15;4.55;;;;;;;;;;5021182;28;20029;-81
2023/05/01 00:40:10;;;;;;;10.52;5.28;;;;;;;;;;5015558;28;20076;-82
2023/05/01 00:42:38;;;;;;;6.85;4.68;;;;;;;;;;5008943;28;20497;-81
2023/05/01 00:45:07;;;;;;;6.45;4.50;;;;;;;;;;5011744;28;20013;-81
2023/05/01 00:47:35;;;;;;;7.03;5.10;;;;;;;;;;5011994;28;20026;-79
2023/05/01 00:50:01;;;;;;;7.22;5.18;;;;;;;;;;5009703;28;20072;-82
2023/05/01 00:52:26;;;;;;;7.30;4.72;;;;;;;;;;5025350;28;20030;-82
2023/05/01 00:54:52;;;;;;;11.90;5.05;;;;;;;;;;5020698;28;20017;-80
2023/05/01 00:57:19;;;;;;;10.38;4.28;;;;;;;;;;5013332;28;20164;-82
2023/05/01 00:59:44;;;;;;;10.27;4.90;;;;;;;;;;5004086;28;20546;-82
2023/05/01 01:02:11;;;;;;;8.40;4.60;;;;;;;;;;4931213;28;20038;-82
2023/05/01 01:04:38;;;;;;;8.80;4.30;;;;;;;;;;4985428;28;20036;-82
2023/05/01 01:07:11;;;;;;;6.63;5.03;;;;;;;;;;5016327;28;20021;-82
2023/05/01 01:09:55;;;;;;;7.70;4.28;;;;;;;;;;5022238;28;20048;-81
2023/05/01 01:12:53;;;;;;;6.05;4.25;;;;;;;;;;5008024;28;20026;-81
2023/05/01 01:15:26;;;;;;;6.45;4.45;;;;;;;;;;4991110;28;20014;-82
2023/05/01 01:18:06;;;;;;;6.10;4.05;;;;;;;;;;5023862;28;20025;-82
2023/05/01 01:20:53;;;;;;;8.57;4.65;;;;;;;;;;5017839;28;20113;-81
2023/05/01 01:23:19;;;;;;;5.47;4.05;;;;;;;;;;5004577;28;20026;-80
2023/05/01 01:26:17;;;;;;;5.68;4.45;;;;;;;;;;5004243;28;20124;-81
2023/05/01 01:28:55;;;;;;;5.57;4.40;;;;;;;;;;5011028;28;20513;-82
2023/05/01 01:31:31;;;;;;;6.28;4.38;;;;;;;;;;5019378;28;20022;-81
2023/05/01 01:34:29;;;;;;;6.28;4.13;;;;;;;;;;5001574;28;20026;-80
2023/05/01 01:37:01;;;;;;;7.30;4.30;;;;;;;;;;5000594;28;20132;-80
2023/05/01 01:39:42;;;;;;;6.07;4.05;;;;;;;;;;5024496;28;20033;-79
2023/05/01 01:42:12;;;;;;;7.07;4.97;;;;;;;;;;5024597;28;20032;-81
2023/05/01 01:44:48;;;;;;;6.97;5.00;;;;;;;;;;5009916;28;20172;-81
2023/05/01 01:47:15;;;;;;;10.05;4.88;;;;;;;;;;4993227;28;20053;-82
2023/05/01 01:49:45;;;;;;;7.63;4.97;;;;;;;;;;4997651;28;20405;-81
2023/05/01 01:52:13;;;;;;;14.55;4.82;;;;;;;;;;5015278;28;20030;-81
2023/05/01 01:54:43;;;;;;;12.77;4.28;;;;;;;;;;5014729;28;20100;-81
2023/05/01 01:57:11;;;;;;;8.50;4.55;;;;;;;;;;5014684;28;20026;-81
2023/05/01 01:59:39;;;;;;;6.18;4.30;;;;;;;;;;5023745;28;20345;-81
2023/05/01 02:02:06;;;;;;;6.03;4.22;;;;;;;;;;5014955;28;20068;-81
2023/05/01 02:04:33;;;;;;;10.15;5.00;;;;;;;;;;4997427;28;20385;-81
2023/05/01 02:07:00;;;;;;;7.03;4.75;;;;;;;;;;5023520;28;20026;-82
2023/05/01 02:09:28;;;;;;;9.13;4.43;;;;;;;;;;4996551;28;20025;-81
2023/05/01 02:11:54;;;;;;;6.10;4.20;;;;;;;;;;5021952;28;20052;-81
2023/05/01 02:14:25;;;;;;;6.72;4.47;;;;;;;;;;4999949;28;20022;-81
2023/05/01 02:16:51;;;;;;;6.65;4.20;;;;;;;;;;4988960;28;20062;-81
2023/05/01 02:19:18;;;;;;;5.32;3.70;;;;;;;;;;5011068;28;20049;-82
2023/05/01 02:21:44;;;;;;;6.88;4.50;;;;;;;;;;5013811;28;20060;-82
2023/05/01 02:24:12;;;;;;;6.05;4.13;;;;;;;;;;5006858;28;20021;-81
2023/05/01 02:26:41;;;;;;;6.65;4.15;;;;;;;;;;5018751;28;20025;-81
2023/05/01 02:29:07;;;;;;;7.18;4.35;;;;;;;;;;4998141;28;20116;-81
2023/05/01 02:31:33;;;;;;;6.78;4.60;;;;;;;;;;5022700;28;20497;-81
2023/05/01 02:33:58;;;;;;;10.18;4.55;;;;;;;;;;5013947;28;20465;-81
2023/05/01 02:36:24;;;;;;;6.93;4.75;;;;;;;;;;4998311;28;20410;-81
2023/05/01 02:38:50;;;;;;;5.82;4.00;;;;;;;;;;4995690;28;20114;-81
2023/05/01 02:41:16;;;;;;;6.45;4.45;;;;;;;;;;4996623;28;20096;-81
2023/05/01 02:43:43;;;;;;;7.65;5.22;;;;;;;;;;5005184;28;20509;-81
2023/05/01 02:46:11;;;;;;;7.75;4.95;;;;;;;;;;5008372;28;20061;-81
2023/05/01 02:48:38;;;;;;;9.15;5.68;;;;;;;;;;4988189;28;20033;-81
2023/05/01 02:51:04;;;;;;;8.73;6.10;;;;;;;;;;5014045;28;20041;-81
2023/05/01 02:53:31;;;;;;;7.78;5.70;;;;;;;;;;5013751;28;20482;-81
2023/05/01 02:55:57;;;;;;;11.30;5.95;;;;;;;;;;5021532;28;20037;-81
2023/05/01 02:58:22;;;;;;;9.57;5.82;;;;;;;;;;4998842;28;20087;-81
2023/05/01 03:00:48;;;;;;;7.85;5.20;;;;;;;;;;5024252;28;20071;-80
2023/05/01 03:03:15;;;;;;;9.27;6.30;;;;;;;;;;5025573;28;20021;-81
2023/05/01 03:05:40;;;;;;;9.48;5.68;;;;;;;;;;5012447;28;20030;-81
2023/05/01 03:08:06;;;;;;;7.63;5.38;;;;;;;;;;5004914;28;20386;-79
2023/05/01 03:10:32;;;;;;;9.30;4.95;;;;;;;;;;5017008;28;20044;-79
2023/05/01 03:12:57;;;;;;;7.50;4.47;;;;;;;;;;5005085;28;20434;-80
2023/05/01 03:15:22;;;;;;;7.03;4.55;;;;;;;;;;5008771;28;20022;-83
2023/05/01 03:17:48;;;;;;;6.95;4.32;;;;;;;;;;5013977;28;20108;-82
2023/05/01 03:20:13;;;;;;;7.90;4.90;;;;;;;;;;5006889;28;20021;-81
2023/05/01 03:22:39;;;;;;;5.63;4.15;;;;;;;;;;5014138;28;20054;-83
2023/05/01 03:25:04;;;;;;;7.55;4.78;;;;;;;;;;5009942;28;20113;-83
2023/05/01 03:27:30;;;;;;;6.43;4.63;;;;;;;;;;5013842;28;20030;-82
2023/05/01 03:29:56;;;;;;;7.90;4.55;;;;;;;;;;5013202;28;20099;-81
2023/05/01 03:32:21;;;;;;;7.97;5.05;;;;;;;;;;5003981;28;20021;-82
2023/05/01 03:34:47;;;;;;;7.90;4.90;;;;;;;;;;5012896;28;20034;-82
2023/05/01 03:37:12;;;;;;;6.15;4.60;;;;;;;;;;5017575;28;20029;-82
2023/05/01 03:39:37;;;;;;;8.07;5.15;;;;;;;;;;5018420;28;20412;-82
2023/05/01 03:42:03;;;;;;;8.25;5.25;;;;;;;;;;4992298;28;21025;-80
2023/05/01 03:44:29;;;;;;;7.05;4.70;;;;;;;;;;5004247;28;20026;-82
2023/05/01 03:46:54;;;;;;;8.05;5.25;;;;;;;;;;5014057;28;20018;-81
2023/05/01 03:49:19;;;;;;;6.68;4.80;;;;;;;;;;4999692;28;20469;-81
2023/05/01 03:51:45;;;;;;;7.57;5.65;;;;;;;;;;5005813;28;20034;-82
2023/05/01 03:54:11;;;;;;;7.30;5.28;;;;;;;;;;4990374;28;20130;-82
2023/05/01 03:56:37;;;;;;;9.52;5.45;;;;;;;;;;5006462;28;20141;-82
2023/05/01 03:59:03;;;;;;;6.05;4.40;;;;;;;;;;4994448;28;20038;-81
2023/05/01 04:01:28;;;;;;;9.73;5.40;;;;;;;;;;5000499;28;20060;-82
2023/05/01 04:03:53;;;;;;;7.72;5.60;;;;;;;;;;4995315;28;20492;-82
2023/05/01 04:06:19;;;;;;;9.98;6.30;;;;;;;;;;5017105;28;20030;-80
2023/05/01 04:08:44;;;;;;;9.23;6.10;;;;;;;;;;5004662;28;20116;-82
2023/05/01 04:11:10;;;;;;;7.78;5.18;;;;;;;;;;5016709;28;20018;-81
2023/05/01 04:13:35;;;;;;;8.95;5.65;;;;;;;;;;5020698;28;20064;-81
2023/05/01 04:16:00;;;;;;;9.73;5.63;;;;;;;;;;5016321;28;20025;-80
2023/05/01 04:18:26;;;;;;;8.07;5.18;;;;;;;;;;5025060;28;20092;-81
2023/05/01 04:20:51;;;;;;;7.15;5.13;;;;;;;;;;5025842;28;20025;-80
2023/05/01 04:23:17;;;;;;;7.32;4.78;;;;;;;;;;5031310;28;20034;-81
2023/05/01 04:25:42;;;;;;;6.65;4.82;;;;;;;;;;5033350;28;20030;-81
2023/05/01 04:28:11;;;;;;;9.20;5.20;;;;;;;;;;5025537;28;20022;-80
2023/05/01 04:30:36;;;;;;;6.70;5.07;;;;;;;;;;5011813;28;20389;-80
2023/05/01 04:33:02;;;;;;;6.38;5.03;;;;;;;;;;5023586;28;20446;-80
2023/05/01 04:35:28;;;;;;;7.00;4.72;;;;;;;;;;5000121;28;20022;-80
2023/05/01 04:37:53;;;;;;;9.02;4.75;;;;;;;;;;5018365;28;20104;-80
2023/05/01 04:40:18;;;;;;;6.82;4.95;;;;;;;;;;4963244;28;20144;-80
2023/05/01 04:42:44;;;;;;;7.00;4.75;;;;;;;;;;4990808;28;20058;-81
2023/05/01 04:45:10;;;;;;;6.13;4.10;;;;;;;;;;5001946;28;20036;-83
2023/05/01 04:47:36;;;;;;;7.15;4.72;;;;;;;;;;5033324;28;20501;-83
2023/05/01 04:50:01;;;;;;;8.10;4.50;;;;;;;;;;5026530;28;20026;-83
2023/05/01 04:52:27;;;;;;;11.30;5.18;;;;;;;;;;5020603;28;20087;-83
2023/05/01 04:54:52;;;;;;;7.43;4.78;;;;;;;;;;4999038;28;20466;-83
2023/05/01 04:57:17;;;;;;;11.10;4.50;;;;;;;;;;5003959;28;20029;-83
2023/05/01 04:59:43;;;;;;;6.15;4.13;;;;;;;;;;5024740;28;20034;-81
2023/05/01 05:02:08;;;;;;;5.85;4.55;;;;;;;;;;5022296;28;20029;-83
2023/05/01 05:04:34;;;;;;;7.60;4.65;;;;;;;;;;5019542;28;20049;-82
2023/05/01 05:06:59;;;;;;;4.88;3.90;;;;;;;;;;5013811;28;20033;-81
2023/05/01 05:09:25;;;;;;;5.65;4.05;;;;;;;;;;5000096;28;20488;-83
2023/05/01 05:11:50;;;;;;;6.68;4.05;;;;;;;;;;5018137;28;20121;-83
2023/05/01 05:14:15;;;;;;;8.00;4.13;;;;;;;;;;5003294;28;20063;-80
2023/05/01 05:16:41;;;;;;;5.55;4.10;;;;;;;;;;5015711;28;20092;-81
2023/05/01 05:19:07;;;;;;;5.68;4.25;;;;;;;;;;5033445;28;20029;-80
2023/05/01 05:21:32;;;;;;;6.45;4.05;;;;;;;;;;5010008;28;20045;-83
2023/05/01 05:23:57;;;;;;;9.45;4.30;;;;;;;;;;5021619;28;20026;-86
2023/05/01 05:26:23;;;;;;;5.18;4.22;;;;;;;;;;5001270;28;20669;-84
2023/05/01 05:28:49;;;;;;;6.63;4.70;;;;;;;;;;5019176;28;20121;-84
2023/05/01 05:31:15;;;;;;;5.53;4.30;;;;;;;;;;5017627;28;20018;-83
2023/05/01 05:33:40;;;;;;;7.28;4.38;;;;;;;;;;5004694;28;20036;-85
2023/05/01 05:36:06;;;;;;;6.13;4.43;;;;;;;;;;5001692;28;20025;-83
2023/05/01 05:38:31;;;;;;;6.18;4.20;;;;;;;;;;5017698;28;20072;-83
2023/05/01 05:40:58;;;;;;;5.32;4.05;;;;;;;;;;5025783;28;20083;-83
2023/05/01 05:43:23;;;;;;;5.38;3.40;;;;;;;;;;5017013;28;20470;-84
2023/05/01 05:45:48;;;;;;;5.53;4.22;;;;;;;;;;5001737;28;20025;-85
2023/05/01 05:48:14;;;;;;;5.57;4.20;;;;;;;;;;5018721;28;20034;-82
2023/05/01 05:50:39;;;;;;;7.82;4.82;;;;;;;;;;5019283;28;20096;-83
2023/05/01 05:53:05;;;;;;;8.43;4.50;;;;;;;;;;5003597;28;20033;-82
2023/05/01 05:55:30;;;;;;;6.97;4.18;;;;;;;;;;5017972;28;20474;-82
2023/05/01 05:57:55;;;;;;;5.80;3.80;;;;;;;;;;5018259;28;20030;-84
2023/05/01 06:00:21;;;;;;;7.88;4.47;;;;;;;;;;5019812;28;20510;-82
2023/05/01 06:02:47;;;;;;;5.38;4.32;;;;;;;;;;5016654;28;20026;-80
2023/05/01 06:05:12;;;;;;;5.57;4.22;;;;;;;;;;5008063;28;20025;-80
2023/05/01 06:07:38;;;;;;;6.60;4.57;;;;;;;;;;5037938;28;20078;-79
2023/05/01 06:10:04;;;;;;;7.35;5.03;;;;;;;;;;5013104;28;20041;-79
2023/05/01 06:12:30;;;;;;;5.63;4.40;;;;;;;;;;5016580;28;20017;-82
2023/05/01 06:14:56;;;;;;;12.45;4.32;;;;;;;;;;5001312;28;20038;-83
2023/05/01 06:17:23;;;;;;;4.88;4.30;;;;;;;;;;5022178;28;20057;-81
2023/05/01 06:19:49;;;;;;;7.38;4.15;;;;;;;;;;5021404;28;20030;-81
2023/05/01 06:22:15;;;;;;;6.43;4.07;;;;;;;;;;5020686;28;20021;-84
2023/05/01 06:24:40;;;;;;;7.20;4.70;;;;;;;;;;4999656;28;20425;-82
2023/05/01 06:27:05;;;;;;;6.07;3.78;;;;;;;;;;5004239;28;20033;-86
2023/05/01 06:29:31;;;;;;;6.53;4.13;;;;;;;;;;5018698;28;20042;-80
2023/05/01 06:31:56;;;;;;;4.32;3.45;;;;;;;;;;5016455;28;20056;-79
2023/05/01 06:34:21;;;;;;;6.45;4.10;;;;;;;;;;5015255;28;20026;-82
2023/05/01 06:36:47;;;;;;;4.88;3.95;;;;;;;;;;4999271;28;20026;-82
2023/05/01 06:39:12;;;;;;;5.63;3.83;;;;;;;;;;4965211;28;1100375;-82
2023/05/01 06:41:37;;;;;;;3.80;3.35;;;;;;;;;;5004528;28;20501;-82
2023/05/01 06:44:03;;;;;;;6.10;4.07;;;;;;;;;;5001856;28;20044;-85
2023/05/01 06:46:29;;;;;;;7.93;4.22;;;;;;;;;;5021099;28;20021;-81
2023/05/01 06:48:55;;;;;;;4.82;3.40;;;;;;;;;;5018793;28;20070;-81
2023/05/01 06:51:20;;;;;;;5.45;3.70;;;;;;;;;;5025222;28;20025;-83
2023/05/01 06:53:45;;;;;;;8.18;3.97;;;;;;;;;;5028353;28;20088;-80
2023/05/01 06:56:11;;;;;;;6.97;4.25;;;;;;;;;;4998553;28;20022;-82
2023/05/01 06:58:37;;;;;;;7.47;3.70;;;;;;;;;;5008263;28;20096;-85
2023/05/01 07:01:02;;;;;;;6.22;3.67;;;;;;;;;;5001160;28;20092;-82
2023/05/01 07:03:28;;;;;;;5.25;3.75;;;;;;;;;;5022416;28;20032;-84
2023/05/01 07:05:53;;;;;;;4.57;3.90;;;;;;;;;;5021329;28;20096;-83
2023/05/01 07:08:19;;;;;;;6.57;3.80;;;;;;;;;;5016494;28;20466;-82
2023/05/01 07:10:44;;;;;;;5.53;3.33;;;;;;;;;;4999701;28;20474;-83
2023/05/01 07:13:10;;;;;;;6.25;3.90;;;;;;;;;;4998772;28;20378;-82
2023/05/01 07:15:36;;;;;;;6.63;3.83;;;;;;;;;;5019061;28;20137;-83
2023/05/01 07:18:01;;;;;;;7.82;3.83;;;;;;;;;;5015975;28;20156;-81
2023/05/01 07:20:27;;;;;;;5.30;3.88;;;;;;;;;;5016350;28;20057;-82
2023/05/01 07:22:52;;;;;;;5.40;4.03;;;;;;;;;;5016847;28;20066;-87
2023/05/01 07:25:19;;;;;;;9.07;4.60;;;;;;;;;;5015226;28;20026;-84
2023/05/01 07:27:44;;;;;;;7.50;4.10;;;;;;;;;;5005240;28;20060;-83
2023/05/01 07:30:10;;;;;;;5.07;3.80;;;;;;;;;;5015361;28;20022;-83
2023/05/01 07:32:35;;;;;;;5.70;3.90;;;;;;;;;;5014156;28;20520;-84
2023/05/01 07:35:00;;;;;;;6.35;4.03;;;;;;;;;;5025102;28;20029;-84
2023/05/01 07:37:26;;;;;;;5.43;3.88;;;;;;;;;;5027971;28;20044;-82
2023/05/01 07:39:51;;;;;;;5.72;4.40;;;;;;;;;;5043185;28;20091;-80
2023/05/01 07:42:17;;;;;;;7.47;4.35;;;;;;;;;;5017240;28;20084;-81
2023/05/01 07:44:42;;;;;;;6.65;4.22;;;;;;;;;;5033397;28;20061;-80
2023/05/01 07:47:07;;;;;;;6.95;4.65;;;;;;;;;;5040597;28;20080;-83
2023/05/01 07:49:37;;;;;;;5.70;4.03;;;;;;;;;;5002797;28;20022;-83
2023/05/01 07:52:03;;;;;;;4.97;4.00;;;;;;;;;;5024838;28;20022;-83
2023/05/01 07:54:28;;;;;;;5.28;4.07;;;;;;;;;;5003199;28;20025;-85
2023/05/01 07:56:55;;;;;;;6.15;4.22;;;;;;;;;;5016950;28;20026;-78
2023/05/01 07:59:20;;;;;;;7.55;4.70;;;;;;;;;;5008459;28;20346;-83
2023/05/01 08:01:45;;;;;;;5.40;4.00;;;;;;;;;;5001729;28;20025;-83
2023/05/01 08:04:11;;;;;;;7.60;4.25;;;;;;;;;;5017923;28;20026;-83
2023/05/01 08:06:36;;;;;;;7.45;4.28;;;;;;;;;;5017647;28;20352;-82
2023/05/01 08:09:01;;;;;;;5.43;4.07;;;;;;;;;;5018760;28;20072;-84
2023/05/01 08:11:28;;;;;;;6.93;4.07;;;;;;;;;;5017696;28;20034;-82
2023/05/01 08:13:53;;;;;;;7.55;4.35;;;;;;;;;;4999243;28;20113;-83
2023/05/01 08:16:19;;;;;;;5.72;4.95;;;;;;;;;;5019978;28;20065;-83
2023/05/01 08:18:45;;;;;;;7.03;4.28;;;;;;;;;;5020273;28;20030;-84
2023/05/01 08:21:10;;;;;;;11.25;4.60;;;;;;;;;;5019066;28;20080;-84
2023/05/01 08:23:36;;;;;;;7.65;4.65;;;;;;;;;;5018790;28;20037;-82
2023/05/01 08:26:01;;;;;;;7.43;4.68;;;;;;;;;;5018178;28;20029;-80
2023/05/01 08:28:27;;;;;;;8.82;5.07;;;;;;;;;;5018657;28;20045;-84
2023/05/01 08:30:52;;;;;;;7.95;5.10;;;;;;;;;;5016443;28;20090;-82
2023/05/01 08:33:18;;;;;;;11.30;5.30;;;;;;;;;;5007318;28;20022;-84
2023/05/01 08:35:43;;;;;;;8.35;5.10;;;;;;;;;;5025619;28;20034;-82
2023/05/01 08:38:10;;;;;;;7.97;5.20;;;;;;;;;;5010084;28;20022;-83
2023/05/01 08:40:39;;;;;;;8.05;5.35;;;;;;;;;;5008791;28;20044;-84
2023/05/01 08:43:05;;;;;;;9.23;5.90;;;;;;;;;;5017546;28;20431;-83
2023/05/01 08:45:36;;;;;;;7.25;4.55;;;;;;;;;;5016694;28;20493;-83
2023/05/01 08:48:09;;;;;;;11.07;4.57;;;;;;;;;;5016225;28;20025;-83
2023/05/01 08:50:38;;;;;;;6.22;4.68;;;;;;;;;;5006642;28;20396;-83
2023/05/01 08:53:04;;;;;;;9.90;5.38;;;;;;;;;;5015524;28;20107;-82
2023/05/01 08:55:33;;;;;;;6.43;4.53;;;;;;;;;;4998756;28;20029;-82
2023/05/01 08:58:00;;;;;;;6.78;4.45;;;;;;;;;;5015346;28;20048;-83
2023/05/01 09:00:26;;;;;;;7.65;4.35;;;;;;;;;;4999359;28;20069;-82
2023/05/01 09:02:51;;;;;;;7.47;4.90;;;;;;;;;;5019131;28;20425;-83
2023/05/01 09:05:18;;;;;;;8.73;4.45;;;;;;;;;;5001550;28;20081;-83
2023/05/01 09:07:45;;;;;;;9.63;4.60;;;;;;;;;;5017288;28;20021;-85
2023/05/01 09:10:12;;;;;;;6.70;4.57;;;;;;;;;;5017817;28;20024;-85
2023/05/01 09:12:38;;;;;;;6.18;4.68;;;;;;;;;;5001225;28;20030;-85
2023/05/01 09:15:06;;;;;;;6.47;4.55;;;;;;;;;;4999170;28;20623;-85
2023/05/01 09:17:32;;;;;;;7.15;5.03;;;;;;;;;;5000302;28;20064;-85
2023/05/01 09:20:00;;;;;;;5.60;4.30;;;;;;;;;;5018269;28;20030;-85
2023/05/01 09:22:26;;;;;;;7.25;4.72;;;;;;;;;;5014492;28;20022;-81
2023/05/01 09:24:51;;;;;;;5.55;4.10;;;;;;;;;;5031757;28;20045;-83
2023/05/01 09:27:18;;;;;;;6.68;4.45;;;;;;;;;;5024074;28;20041;-84
2023/05/01 09:29:45;;;;;;;7.43;4.90;;;;;;;;;;5023508;28;20036;-83
2023/05/01 09:32:23;;;;;;;5.00;4.30;;;;;;;;;;5020363;28;20018;-84
2023/05/01 09:34:50;;;;;;;8.15;4.88;;;;;;;;;;5006439;28;20059;-85
2023/05/01 09:37:32;;;;;;;7.95;4.70;;;;;;;;;;5019092;28;20033;-83
2023/05/01 09:40:05;;;;;;;6.47;4.60;;;;;;;;;;5016476;28;20083;-84
2023/05/01 09:42:31;;;;;;;6.75;4.95;;;;;;;;;;5000123;28;20025;-83
2023/05/01 09:45:02;;;;;;;7.95;4.65;;;;;;;;;;5010845;28;20160;-86
2023/05/01 09:47:30;;;;;;;7.47;4.97;;;;;;;;;;5015715;28;20363;-85
2023/05/01 09:49:56;;;;;;;5.25;4.07;;;;;;;;;;5016476;28;20030;-84
2023/05/01 09:52:25;;;;;;;8.93;4.63;;;;;;;;;;5019269;28;20080;-85
2023/05/01 09:55:11;;;;;;;7.85;4.68;;;;;;;;;;5020314;28;20449;-82
2023/05/01 09:57:37;;;;;;;7.28;4.60;;;;;;;;;;5019494;28;20133;-84
2023/05/01 10:00:07;;;;;;;7.50;4.95;;;;;;;;;;5021152;28;20537;-86
2023/05/01 10:02:32;;;;;;;9.85;5.35;;;;;;;;;;5020797;28;20025;-84
2023/05/01 10:05:09;;;;;;;6.95;5.15;;;;;;;;;;5020207;28;20173;-84
2023/05/01 10:07:34;;;;;;;6.05;4.82;;;;;;;;;;5020052;28;20014;-84
2023/05/01 10:10:20;;;;;;;8.48;5.15;;;;;;;;;;5018128;28;20032;-82
2023/05/01 10:12:54;;;;;;;7.35;4.82;;;;;;;;;;4991908;28;20025;-82
2023/05/01 10:15:20;;;;;;;6.60;4.63;;;;;;;;;;5015251;28;20018;-82
2023/05/01 10:17:50;;;;;;;6.10;4.53;;;;;;;;;;5020715;28;20033;-85
2023/05/01 10:20:16;;;;;;;9.00;4.93;;;;;;;;;;5003121;28;20030;-85
2023/05/01 10:22:41;;;;;;;6.95;4.50;;;;;;;;;;5021084;28;20059;-85
2023/05/01 10:25:08;;;;;;;8.27;4.57;;;;;;;;;;5022355;28;20614;-83
2023/05/01 10:27:34;;;;;;;6.28;4.93;;;;;;;;;;5021816;28;20168;-84
2023/05/01 10:30:03;;;;;;;6.03;4.28;;;;;;;;;;5020789;28;20046;-83
2023/05/01 10:32:31;;;;;;;6.47;4.68;;;;;;;;;;5019054;28;20025;-85
2023/05/01 10:35:00;;;;;;;6.80;4.80;;;;;;;;;;5027563;28;20048;-86
2023/05/01 10:37:36;;;;;;;7.43;3.92;;;;;;;;;;5018710;28;20088;-85
2023/05/01 10:40:39;;;;;;;5.53;4.28;;;;;;;;;;5001249;28;20033;-84
2023/05/01 10:43:26;;;;;;;5.25;3.80;;;;;;;;;;4998704;28;20034;-79
2023/05/01 10:45:52;;;;;;;6.65;4.32;;;;;;;;;;5020543;28;20042;-83
2023/05/01 10:48:43;;;;;;;5.45;3.95;;;;;;;;;;5024660;28;20111;-82
2023/05/01 10:51:16;;;;;;;4.68;3.78;;;;;;;;;;5011329;28;20036;-84
2023/05/01 10:53:44;;;;;;;6.70;4.18;;;;;;;;;;5017682;28;20047;-82
2023/05/01 10:56:25;;;;;;;4.78;3.63;;;;;;;;;;5017932;28;20030;-81
2023/05/01 10:58:58;;;;;;;8.05;4.15;;;;;;;;;;4999482;28;20026;-81
2023/05/01 11:01:34;;;;;;;6.63;4.10;;;;;;;;;;5018193;28;20090;-81
2023/05/01 11:04:27;;;;;;;5.53;3.50;;;;;;;;;;5017310;28;20022;-82
2023/05/01 11:07:04;;;;;;;5.07;3.97;;;;;;;;;;5016452;28;20025;-84
2023/05/01 11:09:42;;;;;;;5.20;4.10;;;;;;;;;;5015035;28;20029;-83
2023/05/01 11:12:10;;;;;;;6.30;4.18;;;;;;;;;;5016511;28;20037;-81
2023/05/01 11:15:01;;;;;;;6.97;4.35;;;;;;;;;;4992252;28;20669;-81
2023/05/01 11:17:44;;;;;;;5.75;4.22;;;;;;;;;;5010941;28;20088;-81
2023/05/01 11:20:11;;;;;;;6.88;4.22;;;;;;;;;;5000124;28;20022;-81
2023/05/01 11:22:39;;;;;;;6.13;4.13;;;;;;;;;;5021595;28;20014;-81
2023/05/01 11:25:17;;;;;;;6.05;4.00;;;;;;;;;;5020742;28;20377;-82
2023/05/01 11:27:53;;;;;;;6.35;4.18;;;;;;;;;;5020825;28;20025;-82
2023/05/01 11:30:19;;;;;;;6.55;3.88;;;;;;;;;;5013557;28;20540;-81
2023/05/01 11:32:45;;;;;;;8.20;4.63;;;;;;;;;;5021846;28;20030;-81
2023/05/01 11:35:23;;;;;;;6.70;4.43;;;;;;;;;;5003306;28;20018;-80
2023/05/01 11:37:55;;;;;;;5.07;4.03;;;;;;;;;;5001911;28;20034;-82
2023/05/01 11:40:25;;;;;;;5.20;4.25;;;;;;;;;;5020038;28;20029;-82
2023/05/01 11:43:05;;;;;;;6.20;3.85;;;;;;;;;;5002266;28;20022;-81
2023/05/01 11:45:32;;;;;;;6.38;3.90;;;;;;;;;;5019132;28;20045;-81
2023/05/01 11:47:58;;;;;;;8.00;4.22;;;;;;;;;;4996676;28;20038;-81
2023/05/01 11:50:34;;;;;;;4.03;3.63;;;;;;;;;;5019333;28;20026;-81
2023/05/01 11:52:59;;;;;;;5.93;4.45;;;;;;;;;;5001051;28;20120;-83
2023/05/01 11:55:32;;;;;;;6.78;4.00;;;;;;;;;;5019003;28;20065;-81
2023/05/01 11:57:58;;;;;;;5.18;3.88;;;;;;;;;;5008213;28;20143;-83
2023/05/01 12:00:36;;;;;;;5.20;3.75;;;;;;;;;;5001446;28;20022;-83
2023/05/01 12:03:08;;;;;;;6.88;4.05;;;;;;;;;;5016430;28;20030;-80
2023/05/01 12:05:36;;;;;;;4.75;4.00;;;;;;;;;;4995063;28;20636;-80
2023/05/01 12:08:21;;;;;;;8.50;4.50;;;;;;;;;;4999217;28;20121;-81
2023/05/01 12:10:50;;;;;;;6.88;4.60;;;;;;;;;;5018492;28;20107;-82
2023/05/01 12:13:16;;;;;;;5.95;3.95;;;;;;;;;;5018890;28;20025;-80
2023/05/01 12:15:45;;;;;;;6.50;4.05;;;;;;;;;;5016055;28;20026;-80
2023/05/01 12:18:11;;;;;;;6.10;3.90;;;;;;;;;;5011713;28;20029;-81
2023/05/01 12:20:50;;;;;;;6.72;4.57;;;;;;;;;;5017058;28;20037;-81
2023/05/01 12:23:16;;;;;;;7.05;4.47;;;;;;;;;;5015871;28;20051;-81
2023/05/01 12:25:42;;;;;;;5.00;3.90;;;;;;;;;;5019825;28;20022;-81
2023/05/01 12:28:13;;;;;;;6.50;4.80;;;;;;;;;;5020661;28;20022;-82
2023/05/01 12:30:39;;;;;;;6.43;4.45;;;;;;;;;;5020727;28;20045;-82
2023/05/01 12:33:16;;;;;;;4.68;3.55;;;;;;;;;;5020738;28;20034;-81
2023/05/01 12:35:45;;;;;;;5.75;4.07;;;;;;;;;;5014142;28;20030;-82
2023/05/01 12:38:14;;;;;;;4.65;4.18;;;;;;;;;;5019743;28;20091;-81
2023/05/01 12:40:50;;;;;;;5.30;4.10;;;;;;;;;;5014500;28;20047;-81
2023/05/01 12:43:16;;;;;;;6.68;4.15;;;;;;;;;;5013554;28;20028;-80
2023/05/01 12:45:42;;;;;;;7.10;4.20;;;;;;;;;;5020869;28;20048;-81
2023/05/01 12:48:14;;;;;;;6.78;4.80;;;;;;;;;;5011002;28;20139;-81
2023/05/01 12:50:40;;;;;;;6.65;4.05;;;;;;;;;;5019785;28;20033;-81
2023/05/01 12:53:08;;;;;;;4.75;3.83;;;;;;;;;;5019751;28;20026;-82
2023/05/01 12:55:48;;;;;;;5.60;4.13;;;;;;;;;;5017500;28;20030;-81
2023/05/01 12:58:14;;;;;;;6.35;4.05;;;;;;;;;;5016934;28;20109;-82
2023/05/01 13:00:47;;;;;;;4.47;3.65;;;;;;;;;;5013448;28;20036;-82
2023/05/01 13:03:15;;;;;;;5.15;4.15;;;;;;;;;;5019564;28;20118;-82
2023/05/01 13:05:56;;;;;;;5.18;3.80;;;;;;;;;;5001486;28;20022;-82
2023/05/01 13:08:31;;;;;;;6.28;4.47;;;;;;;;;;5010125;28;20045;-81
2023/05/01 13:11:07;;;;;;;6.93;4.10;;;;;;;;;;5018816;28;20022;-81
2023/05/01 13:13:34;;;;;;;5.95;4.20;;;;;;;;;;5001992;28;20033;-81
2023/05/01 13:16:19;;;;;;;6.30;4.22;;;;;;;;;;5016234;28;20030;-82
2023/05/01 13:18:46;;;;;;;8.60;4.15;;;;;;;;;;5014626;28;20026;-83
2023/05/01 13:21:14;;;;;;;6.70;3.92;;;;;;;;;;5014949;28;20038;-82
2023/05/01 13:23:41;;;;;;;6.95;4.00;;;;;;;;;;5014854;28;20037;-82
2023/05/01 13:26:08;;;;;;;5.95;3.83;;;;;;;;;;5019062;28;20028;-82
2023/05/01 13:28:46;;;;;;;5.75;4.25;;;;;;;;;;5020025;28;20029;-82
2023/05/01 13:31:13;;;;;;;8.95;4.20;;;;;;;;;;5011546;28;20025;-82
2023/05/01 13:33:42;;;;;;;6.30;4.43;;;;;;;;;;5017920;28;20049;-82
2023/05/01 13:36:09;;;;;;;7.60;4.55;;;;;;;;;;5010424;28;20076;-82
2023/05/01 13:38:52;;;;;;;7.07;4.45;;;;;;;;;;5018225;28;20040;-82
2023/05/01 13:41:24;;;;;;;6.57;4.55;;;;;;;;;;4993556;28;20021;-82
2023/05/01 13:43:52;;;;;;;7.90;4.85;;;;;;;;;;4996727;28;20038;-82
2023/05/01 13:46:20;;;;;;;6.40;4.40;;;;;;;;;;5012564;28;20379;-82
2023/05/01 13:48:46;;;;;;;4.95;3.95;;;;;;;;;;5014722;28;20053;-82
2023/05/01 13:51:19;;;;;;;6.50;4.72;;;;;;;;;;4999135;28;20053;-81
2023/05/01 13:53:44;;;;;;;5.15;3.85;;;;;;;;;;5021658;28;20483;-82
2023/05/01 13:56:12;;;;;;;6.65;4.50;;;;;;;;;;5019684;28;20055;-82
2023/05/01 13:58:37;;;;;;;11.57;4.47;;;;;;;;;;4987903;28;20033;-82
2023/05/01 14:01:06;;;;;;;7.10;4.32;;;;;;;;;;5017717;28;20029;-82
2023/05/01 14:03:40;;;;;;;7.95;4.80;;;;;;;;;;5020819;28;20068;-81
2023/05/01 14:06:12;;;;;;;6.35;4.47;;;;;;;;;;5016819;28;20034;-81
2023/05/01 14:08:38;;;;;;;6.72;4.40;;;;;;;;;;5000408;28;20044;-82
2023/05/01 14:11:06;;;;;;;9.45;4.50;;;;;;;;;;5016651;28;20029;-81
2023/05/01 14:13:32;;;;;;;6.07;4.32;;;;;;;;;;4997432;28;20056;-82
2023/05/01 14:15:57;;;;;;;5.65;4.05;;;;;;;;;;5016361;28;20106;-82
2023/05/01 14:18:22;;;;;;;6.88;5.03;;;;;;;;;;5016452;28;20552;-81
2023/05/01 14:20:48;;;;;;;6.63;4.72;;;;;;;;;;5005456;28;20041;-82
2023/05/01 14:23:19;;;;;;;7.90;4.85;;;;;;;;;;5015917;28;20026;-81
2023/05/01 14:25:45;;;;;;;7.47;4.90;;;;;;;;;;5012169;28;20026;-82
2023/05/01 14:28:11;;;;;;;7.95;4.68;;;;;;;;;;5016399;28;20283;-82
2023/05/01 14:30:38;;;;;;;6.32;4.55;;;;;;;;;;4996638;28;20017;-82
2023/05/01 14:33:09;;;;;;;6.53;4.57;;;;;;;;;;4997709;28;20117;-82
2023/05/01 14:35:35;;;;;;;10.50;4.97;;;;;;;;;;5029855;28;20045;-82
2023/05/01 14:38:11;;;;;;;5.63;4.72;;;;;;;;;;5026794;28;20033;-82
2023/05/01 14:40:39;;;;;;;6.10;4.63;;;;;;;;;;5000249;28;20026;-82
2023/05/01 14:43:05;;;;;;;6.45;4.75;;;;;;;;;;5015319;28;20112;-82
2023/05/01 14:45:31;;;;;;;5.18;4.55;;;;;;;;;;5018430;28;20033;-83
2023/05/01 14:47:56;;;;;;;9.05;5.00;;;;;;;;;;5002781;28;20046;-81
2023/05/01 14:50:23;;;;;;;7.05;5.20;;;;;;;;;;5005609;28;20049;-82